Airfield :
LOGIN :

Register | Disclaimer

   EN    FR    IT 

 










Legend :    VFR   Marginal VFR   IFR   Intensive IFR   Very Intensive IFR
Visi :
Ceiling :
>= 8 km
>= 3000ft
5 to 8 km
1000 to 3000 ft
1500m to 5 km
500 to 1000 ft
800 to 1500m
200 to 500 ft
< 800m
< 200 ft
Symbols :   Thunderstorms  Fog  Heavy snow  Heavy precipitations  Wind > 20 kt
SIGMETs :     Misc.  Thunderstorms  Icing  Turbulence  Mountain Waves  Volcanic Ashes







- Airport Elevation : 90 ft
- IATA code : NTE
- Download approach charts


LFRS - Nantes

CURRENT METAR :
  • 250630Z AUTO 02006KT 350V050 4000 BR NSC 15/14 Q1015 TEMPO BKN004 BECMG 9999 NSW

EXPIRED METARs :
  • 250600Z AUTO 01004KT 340V060 3900 BR NSC 14/13 Q1015 TEMPO BKN004 BECMG 9999 NSW
  • 250530Z AUTO 01005KT 330V040 4000 BR NSC 14/13 Q1015 TEMPO BKN004 BECMG 9999 NSW
  • 250500Z AUTO 01004KT 340V040 4200 BR NSC 14/13 Q1015 BECMG 9999 NSW
  • 250430Z AUTO 02004KT 350V050 4700 BR NSC 14/13 Q1015 BECMG 9999 NSW
  • 250400Z AUTO 02004KT 340V050 5000 BR NSC 15/13 Q1015 NOSIG

TAF TAF LFRS
Valid from the 25 at 06:00 until the 26 at 12:00 UTC


250500Z 2506/2612 02005KT 4500 BR NSC
PROB40 2506/2508 BKN004
BECMG 2506/2509 CAVOK
BECMG 2510/2512 VRB03KT SCT040TCU
BECMG 2518/2521 03010KT
BECMG 2609/2612 14010KT
TEMPO 2510/2609 4000 SHRA BKN040CB
PROB40
TEMPO 2512/2521 VRB15G25KT 2000 TSRAGR BKN030CB
PROB30
TEMPO 2521/2609 3000 TSRA BKN025CB
ATIS : +33 2 40 05 12 74
No reported NOTAMs for that airfield.
1 SIGMET reported for the Brest FIR (LFRR) :
 
Embedded thunderstorms
LFRR SIGMET 3 VALID 250600/250800 LFPW
LFRR BREST FIR/UIR EMBD TS OBS WI N4545 W00145 - N4415 W00145 - N4430 W00230 - N4545 W00215 - N4545 W00145 TOP FL380 MOV NNE 20KT NC=



MET'MAP, your aeronautical weather chart ! - Copyright ORBIFLY December 2007 - Disclaimer

ORBIFLY MET'MAP TEAM :

Programming & Development : Alexandra Zaïnal
Concept & Development : Baudouin d'Aumeries
Co-Development & Prog : Marc-Olivier Méhu
Technical & hardware support : Manuel Goepfert

Contact : metmap@orbifly.com




SOURCES & CREDITS :

   NOAA